Chester, Virginia
Current Conditions -  °F | °C
As of 8:55 AM on Thursday 27 Nov 2014 (Local Time) from KFCI Reporting Station
Overcast Overcast  
Wind Chill: 36°   Ceiling: 400
Heat Index: 39°   Visibility: 10mi
Dew Point: 30°   Wind: 5mph
Humidity: 70%   Direction: 190°S
Pressure: 30.05"   Gusts: NA
Location:  37.36°N, 77.44°W
Report Text: KFCI 271355Z AUTO 19004KT 10SM BKN004 BKN040 OVC050 04/M01 A3005 RMK AO1
Loading
Personal Weather Stations






























Interactive Weather Map New forecast layout! Learn more

10-Day Weather Forecast

Advertisements
Track Severe Weather on mobile